Time;durP1;ratioP1;P1;durP2;ratioP2;P2;SDS_P1;SDS_P2;PMS_P1;PMS_P2;Temp;Humidity;BMP_temperature;BMP_pressure;BME280_temperature;BME280_humidity;BME280_pressure;Samples;Min_cycle;Max_cycle;Signal;HPM_P1;HPM_P2
2022/11/16 00:01:01;;;;;;;6.40;5.80;;;;;;;;;;5116171;28;20936;-66
2022/11/16 00:03:29;;;;;;;6.60;6.00;;;;;;;;;;5115385;28;20475;-67
2022/11/16 00:05:57;;;;;;;6.83;6.03;;;;;;;;;;5115671;28;20544;-67
2022/11/16 00:08:25;;;;;;;7.53;5.80;;;;;;;;;;5115511;28;20935;-68
2022/11/16 00:10:52;;;;;;;7.40;6.50;;;;;;;;;;5116080;28;20468;-67
2022/11/16 00:13:20;;;;;;;6.50;5.90;;;;;;;;;;5115194;28;20948;-67
2022/11/16 00:15:55;;;;;;;7.33;5.70;;;;;;;;;;5115263;28;20435;-68
2022/11/16 00:18:22;;;;;;;6.47;5.97;;;;;;;;;;5115216;28;20438;-68
2022/11/16 00:20:49;;;;;;;6.60;6.00;;;;;;;;;;5115137;28;20449;-68
2022/11/16 00:23:16;;;;;;;6.03;5.43;;;;;;;;;;5115468;28;20465;-67
2022/11/16 00:25:45;;;;;;;7.40;5.87;;;;;;;;;;5115385;28;20478;-67
2022/11/16 00:28:12;;;;;;;6.67;6.07;;;;;;;;;;5115342;28;20476;-68
2022/11/16 00:30:40;;;;;;;6.20;5.60;;;;;;;;;;5115720;28;20443;-67
2022/11/16 00:33:07;;;;;;;6.40;5.80;;;;;;;;;;5115290;28;20449;-67
2022/11/16 00:35:38;;;;;;;6.87;6.20;;;;;;;;;;5114854;28;20443;-67
2022/11/16 00:38:05;;;;;;;7.40;6.03;;;;;;;;;;5114795;28;20435;-68
2022/11/16 00:40:32;;;;;;;6.70;5.80;;;;;;;;;;5115103;28;20505;-67
2022/11/16 00:43:01;;;;;;;8.00;6.60;;;;;;;;;;5114811;28;20470;-67
2022/11/16 00:45:28;;;;;;;8.13;6.10;;;;;;;;;;5114232;28;20440;-68
2022/11/16 00:47:55;;;;;;;5.90;5.30;;;;;;;;;;5115123;28;20481;-67
2022/11/16 00:50:23;;;;;;;6.10;5.60;;;;;;;;;;5114938;28;20447;-67
2022/11/16 00:52:50;;;;;;;7.60;5.80;;;;;;;;;;5114883;28;20958;-67
2022/11/16 00:55:17;;;;;;;7.20;6.23;;;;;;;;;;5114937;28;20466;-67
2022/11/16 00:57:44;;;;;;;8.77;7.00;;;;;;;;;;5114760;28;20444;-66
2022/11/16 01:00:13;;;;;;;7.17;5.67;;;;;;;;;;5114665;28;20442;-67
2022/11/16 01:02:40;;;;;;;6.10;5.50;;;;;;;;;;5115048;28;20440;-66
2022/11/16 01:05:09;;;;;;;7.93;6.27;;;;;;;;;;5114579;28;20449;-67
2022/11/16 01:07:36;;;;;;;7.17;5.70;;;;;;;;;;5114489;28;20481;-66
2022/11/16 01:10:04;;;;;;;6.80;6.20;;;;;;;;;;5114228;28;20944;-67
2022/11/16 01:12:30;;;;;;;6.53;5.80;;;;;;;;;;5114652;28;20461;-67
2022/11/16 01:14:57;;;;;;;6.47;5.87;;;;;;;;;;5114420;28;20439;-67
2022/11/16 01:17:26;;;;;;;6.70;6.10;;;;;;;;;;5114767;28;20439;-67
2022/11/16 01:19:53;;;;;;;6.97;6.37;;;;;;;;;;5114480;28;20526;-67
2022/11/16 01:22:20;;;;;;;11.77;6.67;;;;;;;;;;5114395;28;20439;-66
2022/11/16 01:24:48;;;;;;;14.73;6.60;;;;;;;;;;5114233;28;20442;-67
2022/11/16 01:27:15;;;;;;;8.00;6.47;;;;;;;;;;5113903;28;20984;-66
2022/11/16 01:29:42;;;;;;;7.03;6.43;;;;;;;;;;5113848;28;20955;-67
2022/11/16 01:32:10;;;;;;;7.07;6.40;;;;;;;;;;5114207;28;20443;-66
2022/11/16 01:34:38;;;;;;;8.00;6.83;;;;;;;;;;5114058;28;20443;-67
2022/11/16 01:37:05;;;;;;;6.80;6.20;;;;;;;;;;5113779;28;20448;-66
2022/11/16 01:39:33;;;;;;;8.37;6.50;;;;;;;;;;5114434;28;20468;-67
2022/11/16 01:42:00;;;;;;;11.90;7.20;;;;;;;;;;5113916;28;20563;-67
2022/11/16 01:44:46;;;;;;;7.00;6.33;;;;;;;;;;5113583;28;20445;-67
2022/11/16 01:47:14;;;;;;;8.23;6.90;;;;;;;;;;5113602;28;21008;-67
2022/11/16 01:49:44;;;;;;;16.13;6.40;;;;;;;;;;5113600;28;20454;-67
2022/11/16 01:52:14;;;;;;;7.90;7.17;;;;;;;;;;5113979;28;20469;-67
2022/11/16 01:54:43;;;;;;;7.60;6.77;;;;;;;;;;5113863;28;20821;-67
2022/11/16 01:57:13;;;;;;;8.30;7.10;;;;;;;;;;5115932;28;20476;-67
2022/11/16 01:59:41;;;;;;;9.07;8.23;;;;;;;;;;5120788;28;20954;-67
2022/11/16 02:02:08;;;;;;;8.10;7.40;;;;;;;;;;5120668;28;20446;-67
2022/11/16 02:04:35;;;;;;;8.17;7.07;;;;;;;;;;5120291;28;20537;-67
2022/11/16 02:07:07;;;;;;;7.07;6.20;;;;;;;;;;5120276;28;20480;-67
2022/11/16 02:09:55;;;;;;;8.47;7.67;;;;;;;;;;5121081;28;20427;-68
2022/11/16 02:12:32;;;;;;;9.27;7.70;;;;;;;;;;5120718;28;20454;-67
2022/11/16 02:15:08;;;;;;;9.70;7.47;;;;;;;;;;5120236;28;20911;-67
2022/11/16 02:17:39;;;;;;;8.73;7.90;;;;;;;;;;5120797;28;20912;-67
2022/11/16 02:20:25;;;;;;;8.48;7.60;;;;;;;;;;5120458;28;20908;-67
2022/11/16 02:23:03;;;;;;;10.27;8.40;;;;;;;;;;5120515;28;20188;-67
2022/11/16 02:25:35;;;;;;;9.53;8.63;;;;;;;;;;5120596;28;20422;-67
2022/11/16 02:28:14;;;;;;;9.53;8.40;;;;;;;;;;5120145;28;20462;-68
2022/11/16 02:30:45;;;;;;;9.50;8.43;;;;;;;;;;5120383;28;20441;-67
2022/11/16 02:33:14;;;;;;;9.90;8.90;;;;;;;;;;5120592;28;20437;-68
2022/11/16 02:35:43;;;;;;;12.70;8.87;;;;;;;;;;5120031;28;20474;-68
2022/11/16 02:38:12;;;;;;;9.77;8.37;;;;;;;;;;5120423;28;20945;-67
2022/11/16 02:40:41;;;;;;;10.77;8.70;;;;;;;;;;5120273;28;20457;-68
2022/11/16 02:43:10;;;;;;;13.50;9.03;;;;;;;;;;5120363;28;20462;-67
2022/11/16 02:45:39;;;;;;;10.13;8.63;;;;;;;;;;5120311;28;20472;-68
2022/11/16 02:48:09;;;;;;;11.27;9.10;;;;;;;;;;5119868;28;20474;-67
2022/11/16 02:50:37;;;;;;;11.80;9.00;;;;;;;;;;5119882;28;20427;-68
2022/11/16 02:53:04;;;;;;;10.60;9.50;;;;;;;;;;5119891;28;20449;-68
2022/11/16 02:55:33;;;;;;;16.43;9.40;;;;;;;;;;5120108;28;20881;-68
2022/11/16 02:58:02;;;;;;;11.63;8.50;;;;;;;;;;5119816;28;20472;-68
2022/11/16 03:00:32;;;;;;;11.93;8.73;;;;;;;;;;5120013;28;20533;-69
2022/11/16 03:03:08;;;;;;;12.70;8.77;;;;;;;;;;5120095;28;20439;-68
2022/11/16 03:05:39;;;;;;;9.83;8.83;;;;;;;;;;5119830;28;20426;-68
2022/11/16 03:08:09;;;;;;;13.87;9.57;;;;;;;;;;5120444;28;20479;-68
2022/11/16 03:13:26;;;;;;;10.90;9.10;;;;;;;;;;5116817;28;20418;-68
2022/11/16 03:15:54;;;;;;;11.73;10.37;;;;;;;;;;5116953;28;20449;-68
2022/11/16 03:18:22;;;;;;;13.00;9.73;;;;;;;;;;5116755;28;20457;-68
2022/11/16 03:20:53;;;;;;;10.77;9.67;;;;;;;;;;5116585;28;20438;-70
2022/11/16 03:23:20;;;;;;;13.00;9.80;;;;;;;;;;5116684;28;20456;-70
2022/11/16 03:25:50;;;;;;;14.20;9.75;;;;;;;;;;5116237;28;20453;-69
2022/11/16 03:28:21;;;;;;;11.00;9.17;;;;;;;;;;5116631;28;20217;-69
2022/11/16 03:30:52;;;;;;;10.97;9.87;;;;;;;;;;5116650;28;20896;-69
2022/11/16 03:33:22;;;;;;;12.53;10.30;;;;;;;;;;5116222;28;20441;-69
2022/11/16 03:35:56;;;;;;;13.30;10.60;;;;;;;;;;5116137;28;20422;-69
2022/11/16 03:38:23;;;;;;;13.60;10.40;;;;;;;;;;5116798;28;20435;-69
2022/11/16 03:40:51;;;;;;;12.43;10.87;;;;;;;;;;5116241;28;20454;-69
2022/11/16 03:43:20;;;;;;;14.13;10.10;;;;;;;;;;5115855;28;20467;-69
2022/11/16 03:45:47;;;;;;;11.50;9.70;;;;;;;;;;5116121;28;20552;-69
2022/11/16 03:48:14;;;;;;;14.53;11.10;;;;;;;;;;5116646;28;20497;-69
2022/11/16 03:50:43;;;;;;;14.83;9.63;;;;;;;;;;5116182;28;20526;-69
2022/11/16 03:53:12;;;;;;;14.80;10.90;;;;;;;;;;5116300;28;20446;-69
2022/11/16 03:55:39;;;;;;;15.10;11.03;;;;;;;;;;5115645;28;20961;-68
2022/11/16 03:58:06;;;;;;;11.33;10.13;;;;;;;;;;5116080;28;20443;-68
2022/11/16 04:00:33;;;;;;;10.83;9.73;;;;;;;;;;5115943;28;20539;-69
2022/11/16 04:03:00;;;;;;;16.10;11.27;;;;;;;;;;5115990;28;20450;-68
2022/11/16 04:24:52;;;;;;;12.80;11.10;;;;;;;;;;5115346;28;20176;-68
2022/11/16 04:30:08;;;;;;;11.97;10.77;;;;;;;;;;5115406;28;20922;-68
2022/11/16 04:38:19;;;;;;;13.00;11.27;;;;;;;;;;5087006;28;20463;-68
2022/11/16 04:40:48;;;;;;;14.87;11.17;;;;;;;;;;5114930;28;20450;-68
2022/11/16 04:43:14;;;;;;;15.87;11.97;;;;;;;;;;5114862;28;20473;-68
2022/11/16 04:48:26;;;;;;;15.83;13.10;;;;;;;;;;5115055;28;20453;-67
2022/11/16 04:50:53;;;;;;;17.97;13.50;;;;;;;;;;5114865;28;20438;-69
2022/11/16 04:53:22;;;;;;;18.17;11.90;;;;;;;;;;5114014;28;20442;-68
2022/11/16 04:55:51;;;;;;;19.90;12.33;;;;;;;;;;5114907;28;20455;-67
2022/11/16 04:58:18;;;;;;;20.10;12.40;;;;;;;;;;5114665;28;20434;-67
2022/11/16 05:00:45;;;;;;;15.13;12.15;;;;;;;;;;5114504;28;20446;-67
2022/11/16 05:03:12;;;;;;;14.70;12.17;;;;;;;;;;5114616;28;20548;-67
2022/11/16 05:05:40;;;;;;;14.40;11.90;;;;;;;;;;5114768;28;20475;-67
2022/11/16 05:08:07;;;;;;;20.90;12.57;;;;;;;;;;5114137;28;20480;-68
2022/11/16 05:10:34;;;;;;;14.87;13.20;;;;;;;;;;5114195;28;20981;-68
2022/11/16 05:13:03;;;;;;;17.67;13.47;;;;;;;;;;5114624;28;20829;-68
2022/11/16 05:15:30;;;;;;;17.47;13.40;;;;;;;;;;5114729;28;20439;-67
2022/11/16 05:17:57;;;;;;;16.30;13.37;;;;;;;;;;5114061;28;20442;-68
2022/11/16 05:24:32;;;;;;;23.83;13.30;;;;;;;;;;5114132;28;20452;-67
2022/11/16 05:25:56;;;;;;;30.83;13.90;;;;;;;;;;5114483;28;20450;-67
2022/11/16 05:28:25;;;;;;;31.13;14.23;;;;;;;;;;5114109;28;20497;-67
2022/11/16 05:30:52;;;;;;;24.23;15.13;;;;;;;;;;5114539;28;20463;-67
2022/11/16 05:33:19;;;;;;;24.00;14.80;;;;;;;;;;5113328;28;20477;-67
2022/11/16 05:35:46;;;;;;;21.57;14.00;;;;;;;;;;5114118;28;20806;-67
2022/11/16 05:38:14;;;;;;;20.20;14.00;;;;;;;;;;5114077;28;20465;-68
2022/11/16 05:40:41;;;;;;;16.70;14.20;;;;;;;;;;5114568;28;20449;-67
2022/11/16 05:43:08;;;;;;;17.00;13.50;;;;;;;;;;5114043;28;20471;-67
2022/11/16 05:45:37;;;;;;;20.80;12.97;;;;;;;;;;5113917;28;21034;-67
2022/11/16 05:48:04;;;;;;;17.37;13.27;;;;;;;;;;5113439;28;20565;-67
2022/11/16 05:50:31;;;;;;;18.60;14.13;;;;;;;;;;5113803;28;20443;-67
2022/11/16 05:52:58;;;;;;;17.07;14.53;;;;;;;;;;5114331;28;20442;-68
2022/11/16 05:55:25;;;;;;;20.00;14.00;;;;;;;;;;5113562;28;20439;-68
2022/11/16 05:57:53;;;;;;;17.27;13.80;;;;;;;;;;5113546;28;20962;-68
2022/11/16 06:00:20;;;;;;;16.73;12.43;;;;;;;;;;5113920;28;20869;-68
2022/11/16 06:02:49;;;;;;;20.63;13.83;;;;;;;;;;5113770;28;20430;-68
2022/11/16 06:05:16;;;;;;;23.47;13.30;;;;;;;;;;5113869;28;20445;-67
2022/11/16 06:07:43;;;;;;;22.67;14.17;;;;;;;;;;5113781;28;20524;-68
2022/11/16 06:10:11;;;;;;;15.80;12.80;;;;;;;;;;5113427;28;20443;-68
2022/11/16 06:12:38;;;;;;;18.27;13.90;;;;;;;;;;5113264;28;20451;-68
2022/11/16 06:15:05;;;;;;;19.13;13.73;;;;;;;;;;5113453;28;20446;-68
2022/11/16 06:17:33;;;;;;;26.17;14.53;;;;;;;;;;5113641;28;20449;-68
2022/11/16 06:20:01;;;;;;;22.13;14.57;;;;;;;;;;5113723;28;20442;-68
2022/11/16 06:22:28;;;;;;;18.87;13.87;;;;;;;;;;5113577;28;20445;-68
2022/11/16 06:24:56;;;;;;;28.13;14.73;;;;;;;;;;5113775;28;20467;-68
2022/11/16 06:27:23;;;;;;;22.70;14.97;;;;;;;;;;5113198;28;20450;-68
2022/11/16 06:29:50;;;;;;;17.93;13.67;;;;;;;;;;5113393;28;20979;-68
2022/11/16 06:32:18;;;;;;;16.30;12.60;;;;;;;;;;5114019;28;20533;-68
2022/11/16 06:34:45;;;;;;;17.03;12.20;;;;;;;;;;5113142;28;21012;-69
2022/11/16 06:37:13;;;;;;;17.83;14.73;;;;;;;;;;5113399;28;20894;-68
2022/11/16 06:39:41;;;;;;;18.10;14.10;;;;;;;;;;5112954;28;20446;-69
2022/11/16 06:42:08;;;;;;;19.90;14.80;;;;;;;;;;5113301;28;20467;-69
2022/11/16 06:44:35;;;;;;;18.87;14.00;;;;;;;;;;5114570;28;20446;-69
2022/11/16 06:47:02;;;;;;;21.17;13.33;;;;;;;;;;5117253;28;20945;-69
2022/11/16 06:49:30;;;;;;;15.93;14.00;;;;;;;;;;5117415;28;20562;-69
2022/11/16 06:51:57;;;;;;;17.97;12.70;;;;;;;;;;5117611;28;20443;-69
2022/11/16 06:54:25;;;;;;;22.87;18.00;;;;;;;;;;5117254;28;20533;-69
2022/11/16 06:56:52;;;;;;;17.77;13.00;;;;;;;;;;5117623;28;20858;-69
2022/11/16 06:59:20;;;;;;;17.23;12.60;;;;;;;;;;5117194;28;20444;-69
2022/11/16 07:01:47;;;;;;;18.30;12.80;;;;;;;;;;5117716;28;20445;-68
2022/11/16 07:04:14;;;;;;;16.23;12.83;;;;;;;;;;5117465;28;20931;-68
2022/11/16 07:06:42;;;;;;;19.87;14.10;;;;;;;;;;5116714;28;20451;-69
2022/11/16 07:09:09;;;;;;;25.93;15.03;;;;;;;;;;5116946;28;20535;-68
2022/11/16 07:11:38;;;;;;;16.50;12.00;;;;;;;;;;5116974;28;20446;-69
2022/11/16 07:14:05;;;;;;;21.07;14.00;;;;;;;;;;5114455;28;20457;-68
2022/11/16 07:16:32;;;;;;;14.47;11.87;;;;;;;;;;5096089;28;20439;-69
2022/11/16 07:18:59;;;;;;;15.13;11.23;;;;;;;;;;5095943;28;20450;-69
2022/11/16 07:21:26;;;;;;;16.63;10.70;;;;;;;;;;5096246;28;20436;-69
2022/11/16 07:23:54;;;;;;;11.90;10.50;;;;;;;;;;5096425;28;20451;-68
2022/11/16 07:26:21;;;;;;;20.00;9.90;;;;;;;;;;5096334;28;20443;-69
2022/11/16 07:28:49;;;;;;;12.07;9.80;;;;;;;;;;5096177;28;20875;-69
2022/11/16 07:31:17;;;;;;;10.47;9.37;;;;;;;;;;5096213;28;20962;-68
2022/11/16 07:33:44;;;;;;;11.53;9.27;;;;;;;;;;5095859;28;20534;-68
2022/11/16 07:36:12;;;;;;;14.20;8.90;;;;;;;;;;5095667;28;20517;-69
2022/11/16 07:38:39;;;;;;;10.20;8.70;;;;;;;;;;5096087;28;20444;-68
2022/11/16 07:41:08;;;;;;;12.33;9.20;;;;;;;;;;5095640;28;20451;-69
2022/11/16 07:43:36;;;;;;;11.50;8.03;;;;;;;;;;5095570;28;20471;-70
2022/11/16 07:46:06;;;;;;;8.87;7.53;;;;;;;;;;5095474;28;20464;-68
2022/11/16 07:48:33;;;;;;;11.50;7.80;;;;;;;;;;5095555;28;20480;-68
2022/11/16 07:51:01;;;;;;;8.80;7.23;;;;;;;;;;5095665;28;20780;-68
2022/11/16 07:53:29;;;;;;;8.20;6.60;;;;;;;;;;5095511;28;20447;-68
2022/11/16 07:55:56;;;;;;;10.23;7.87;;;;;;;;;;5094943;28;20956;-68
2022/11/16 07:58:32;;;;;;;8.83;6.80;;;;;;;;;;5095769;28;20450;-68
2022/11/16 08:01:03;;;;;;;8.07;6.80;;;;;;;;;;5096072;28;20431;-68
2022/11/16 08:03:32;;;;;;;8.53;7.20;;;;;;;;;;5095625;28;20822;-68
2022/11/16 08:06:00;;;;;;;8.33;7.20;;;;;;;;;;5095111;28;20458;-68
2022/11/16 08:08:27;;;;;;;9.40;7.20;;;;;;;;;;5095053;28;20478;-68
2022/11/16 08:10:59;;;;;;;9.70;6.93;;;;;;;;;;5094904;28;20968;-68
2022/11/16 08:13:26;;;;;;;7.40;6.30;;;;;;;;;;5095332;28;20519;-68
2022/11/16 08:15:53;;;;;;;8.67;7.10;;;;;;;;;;5094867;28;20505;-68
2022/11/16 08:18:21;;;;;;;7.27;6.57;;;;;;;;;;5095230;28;20446;-68
2022/11/16 08:20:49;;;;;;;9.97;6.53;;;;;;;;;;5094796;28;20446;-69
2022/11/16 08:23:16;;;;;;;9.30;5.70;;;;;;;;;;5095557;28;20807;-68
2022/11/16 08:25:43;;;;;;;6.37;5.43;;;;;;;;;;5095142;28;20796;-69
2022/11/16 08:28:11;;;;;;;9.20;6.87;;;;;;;;;;5094926;28;20439;-69
2022/11/16 08:30:39;;;;;;;10.40;7.00;;;;;;;;;;5094854;28;20459;-68
2022/11/16 08:33:06;;;;;;;6.60;6.00;;;;;;;;;;5094592;28;20448;-68
2022/11/16 08:35:34;;;;;;;8.87;6.20;;;;;;;;;;5094418;28;20435;-68
2022/11/16 08:38:02;;;;;;;6.70;6.00;;;;;;;;;;5095148;28;20471;-68
2022/11/16 08:40:32;;;;;;;8.80;7.30;;;;;;;;;;5094644;28;20452;-68
2022/11/16 08:42:59;;;;;;;8.57;6.80;;;;;;;;;;5094471;28;20574;-68
2022/11/16 08:45:26;;;;;;;9.13;7.00;;;;;;;;;;5094918;28;20524;-68
2022/11/16 08:47:54;;;;;;;7.57;6.83;;;;;;;;;;5094774;28;20435;-68
2022/11/16 08:50:21;;;;;;;8.60;7.40;;;;;;;;;;5094402;28;20546;-68
2022/11/16 08:52:48;;;;;;;7.93;6.77;;;;;;;;;;5094161;28;20527;-68
2022/11/16 08:55:17;;;;;;;11.23;7.13;;;;;;;;;;5094343;28;20444;-68
2022/11/16 08:57:44;;;;;;;11.30;8.07;;;;;;;;;;5094875;28;20447;-68
2022/11/16 09:00:12;;;;;;;9.67;8.07;;;;;;;;;;5094463;28;20448;-67
2022/11/16 09:02:39;;;;;;;8.73;7.83;;;;;;;;;;5094297;28;20963;-68
2022/11/16 09:05:10;;;;;;;9.30;8.30;;;;;;;;;;5094779;28;20443;-68
2022/11/16 09:07:38;;;;;;;12.30;8.37;;;;;;;;;;5093142;28;20428;-68
2022/11/16 09:10:05;;;;;;;10.53;8.77;;;;;;;;;;5093754;28;21071;-69
2022/11/16 09:12:34;;;;;;;11.07;8.50;;;;;;;;;;5093803;28;20452;-68
2022/11/16 09:15:02;;;;;;;9.00;8.10;;;;;;;;;;5094516;28;20438;-68
2022/11/16 09:17:29;;;;;;;8.10;7.30;;;;;;;;;;5093749;28;20479;-68
2022/11/16 09:19:56;;;;;;;10.37;7.70;;;;;;;;;;5094243;28;20792;-68
2022/11/16 09:22:23;;;;;;;10.03;8.83;;;;;;;;;;5093997;28;20435;-68
2022/11/16 09:24:50;;;;;;;10.47;9.47;;;;;;;;;;5094088;28;20436;-68
2022/11/16 09:27:18;;;;;;;15.47;9.73;;;;;;;;;;5093612;28;20448;-69
2022/11/16 09:29:46;;;;;;;16.53;9.47;;;;;;;;;;5093832;28;20497;-69
2022/11/16 09:32:13;;;;;;;11.67;9.33;;;;;;;;;;5094317;28;20447;-68
2022/11/16 09:34:40;;;;;;;13.67;9.90;;;;;;;;;;5093484;28;20444;-68
2022/11/16 09:37:08;;;;;;;16.00;9.23;;;;;;;;;;5093379;28;20444;-69
2022/11/16 09:39:35;;;;;;;12.70;10.40;;;;;;;;;;5094083;28;20446;-68
2022/11/16 09:42:07;;;;;;;11.57;9.57;;;;;;;;;;5093646;28;20474;-68
2022/11/16 09:44:49;;;;;;;10.80;9.73;;;;;;;;;;5094253;28;20515;-68
2022/11/16 09:47:20;;;;;;;13.00;10.83;;;;;;;;;;5091255;28;20466;-68
2022/11/16 09:49:49;;;;;;;11.50;9.97;;;;;;;;;;5093642;28;20463;-68
2022/11/16 09:52:21;;;;;;;15.70;10.93;;;;;;;;;;5093536;28;20450;-69
2022/11/16 09:54:49;;;;;;;13.07;11.03;;;;;;;;;;5093611;28;20440;-68
2022/11/16 09:57:19;;;;;;;11.70;10.30;;;;;;;;;;5093606;28;20777;-68
2022/11/16 09:59:48;;;;;;;14.00;9.70;;;;;;;;;;5093890;28;20429;-68
2022/11/16 10:02:22;;;;;;;11.97;9.00;;;;;;;;;;5093094;28;20930;-69
2022/11/16 10:04:51;;;;;;;11.47;9.67;;;;;;;;;;5093619;28;20776;-68
2022/11/16 10:07:22;;;;;;;12.63;10.30;;;;;;;;;;5093341;28;20501;-68
2022/11/16 10:09:49;;;;;;;9.23;8.20;;;;;;;;;;5093838;28;20460;-68
2022/11/16 10:12:20;;;;;;;9.33;7.57;;;;;;;;;;5093394;28;20447;-68
2022/11/16 10:15:03;;;;;;;9.73;8.73;;;;;;;;;;5093085;28;20440;-68
2022/11/16 10:17:37;;;;;;;17.57;9.30;;;;;;;;;;5093373;28;20428;-68
2022/11/16 10:20:09;;;;;;;17.87;7.57;;;;;;;;;;5097606;28;20518;-68
2022/11/16 10:22:44;;;;;;;8.57;7.10;;;;;;;;;;5096975;28;20440;-68
2022/11/16 10:25:15;;;;;;;7.50;6.87;;;;;;;;;;5097548;28;20432;-68
2022/11/16 10:27:47;;;;;;;8.93;6.40;;;;;;;;;;5096794;28;20936;-68
2022/11/16 10:30:16;;;;;;;4.57;4.13;;;;;;;;;;5096913;28;20503;-68
2022/11/16 10:32:48;;;;;;;14.00;4.40;;;;;;;;;;5097101;28;20560;-68
2022/11/16 10:35:17;;;;;;;5.20;2.93;;;;;;;;;;5096893;28;20426;-68
2022/11/16 10:37:46;;;;;;;7.43;3.47;;;;;;;;;;5097228;28;20486;-68
2022/11/16 10:40:18;;;;;;;8.30;3.63;;;;;;;;;;5117434;28;20452;-68
2022/11/16 10:42:47;;;;;;;7.30;3.40;;;;;;;;;;5116738;28;20481;-68
2022/11/16 10:45:19;;;;;;;7.83;3.10;;;;;;;;;;5118049;28;20787;-67
2022/11/16 10:47:51;;;;;;;7.40;3.10;;;;;;;;;;5117468;28;20858;-67
2022/11/16 10:50:30;;;;;;;7.43;3.00;;;;;;;;;;5117185;28;20466;-67
2022/11/16 10:52:58;;;;;;;14.73;3.23;;;;;;;;;;5117502;28;20423;-67
2022/11/16 10:55:27;;;;;;;8.43;2.90;;;;;;;;;;5116881;28;20439;-68
2022/11/16 10:57:55;;;;;;;5.23;3.20;;;;;;;;;;5116998;28;20439;-67
2022/11/16 11:00:34;;;;;;;6.80;2.67;;;;;;;;;;5117056;28;20963;-67
2022/11/16 11:03:03;;;;;;;5.67;3.63;;;;;;;;;;5117014;28;20423;-67
2022/11/16 11:05:34;;;;;;;9.53;3.30;;;;;;;;;;5116585;28;20929;-67
2022/11/16 11:08:02;;;;;;;5.17;3.20;;;;;;;;;;5116913;28;20420;-67
2022/11/16 11:10:31;;;;;;;4.37;3.17;;;;;;;;;;5116560;28;20475;-67
2022/11/16 11:13:02;;;;;;;6.50;2.60;;;;;;;;;;5116240;28;20542;-67
2022/11/16 11:15:29;;;;;;;8.10;3.20;;;;;;;;;;5115721;28;20439;-67
2022/11/16 11:18:17;;;;;;;10.73;3.33;;;;;;;;;;5116542;28;20453;-67
2022/11/16 11:20:46;;;;;;;11.33;2.90;;;;;;;;;;5117231;28;20431;-67
2022/11/16 11:23:14;;;;;;;9.10;3.00;;;;;;;;;;5116565;28;20449;-67
2022/11/16 11:25:42;;;;;;;10.07;3.10;;;;;;;;;;5116895;28;20477;-67
2022/11/16 11:28:16;;;;;;;13.00;3.63;;;;;;;;;;5116489;28;20863;-67
2022/11/16 11:30:52;;;;;;;6.87;3.00;;;;;;;;;;5115549;28;20466;-67
2022/11/16 11:33:22;;;;;;;6.93;4.23;;;;;;;;;;5116420;28;20428;-67
2022/11/16 11:35:56;;;;;;;7.47;2.93;;;;;;;;;;5116078;28;20506;-67
2022/11/16 11:38:24;;;;;;;8.93;3.00;;;;;;;;;;5116250;28;20780;-67
2022/11/16 11:40:57;;;;;;;7.07;2.50;;;;;;;;;;5116512;28;20444;-67
2022/11/16 11:43:25;;;;;;;5.47;2.73;;;;;;;;;;5116366;28;20476;-67
2022/11/16 11:45:55;;;;;;;6.53;3.20;;;;;;;;;;5116104;28;20446;-67
2022/11/16 11:48:28;;;;;;;7.80;3.20;;;;;;;;;;5116218;28;20601;-67
2022/11/16 11:50:57;;;;;;;6.50;2.90;;;;;;;;;;5115939;28;20475;-67
2022/11/16 11:53:30;;;;;;;4.37;2.80;;;;;;;;;;5116284;28;20441;-67
2022/11/16 11:55:58;;;;;;;7.70;2.47;;;;;;;;;;5115688;28;20440;-67
2022/11/16 11:58:28;;;;;;;9.30;4.27;;;;;;;;;;5115916;28;20441;-67
2022/11/16 12:00:59;;;;;;;8.57;2.80;;;;;;;;;;5115913;28;20968;-66
2022/11/16 12:03:41;;;;;;;3.13;2.23;;;;;;;;;;5116149;28;20565;-67
2022/11/16 12:06:15;;;;;;;8.20;2.43;;;;;;;;;;5115744;28;20441;-66
2022/11/16 12:08:49;;;;;;;6.47;2.23;;;;;;;;;;5115334;28;20431;-67
2022/11/16 12:11:21;;;;;;;8.40;2.90;;;;;;;;;;5116435;28;20577;-66
2022/11/16 12:13:59;;;;;;;9.00;2.20;;;;;;;;;;5115217;28;20950;-66
2022/11/16 12:16:29;;;;;;;8.30;2.70;;;;;;;;;;5115872;28;20523;-66
2022/11/16 12:19:06;;;;;;;5.60;1.67;;;;;;;;;;5115718;28;20802;-67
2022/11/16 12:21:41;;;;;;;3.80;2.20;;;;;;;;;;5115251;28;20459;-67
2022/11/16 12:24:27;;;;;;;6.60;2.10;;;;;;;;;;5115468;28;20434;-67
2022/11/16 12:26:59;;;;;;;2.30;1.67;;;;;;;;;;5115574;28;20450;-66
2022/11/16 12:29:27;;;;;;;9.60;2.33;;;;;;;;;;5115000;28;20903;-67
2022/11/16 12:32:13;;;;;;;6.93;2.13;;;;;;;;;;5114957;28;20432;-67
2022/11/16 12:34:51;;;;;;;11.33;3.20;;;;;;;;;;5115075;28;20433;-67
2022/11/16 12:37:25;;;;;;;9.77;2.40;;;;;;;;;;5115012;28;20425;-67
2022/11/16 12:40:00;;;;;;;4.50;2.00;;;;;;;;;;5115465;28;20436;-67
2022/11/16 12:42:33;;;;;;;5.57;2.17;;;;;;;;;;5115122;28;20485;-67
2022/11/16 12:45:21;;;;;;;6.10;2.57;;;;;;;;;;5114841;28;20939;-67
2022/11/16 12:47:58;;;;;;;3.77;2.47;;;;;;;;;;5109426;28;20450;-67
2022/11/16 12:50:33;;;;;;;4.63;2.47;;;;;;;;;;5114633;28;20470;-67
2022/11/16 12:53:10;;;;;;;7.10;2.27;;;;;;;;;;5114886;28;20450;-67
2022/11/16 12:55:41;;;;;;;3.20;1.57;;;;;;;;;;5114816;28;20908;-66
2022/11/16 12:58:13;;;;;;;3.27;1.80;;;;;;;;;;5115366;28;20754;-67
2022/11/16 13:00:49;;;;;;;3.00;1.90;;;;;;;;;;5115585;28;20839;-66
2022/11/16 13:03:20;;;;;;;6.07;2.33;;;;;;;;;;5114820;28;20436;-67
2022/11/16 13:05:53;;;;;;;2.73;2.07;;;;;;;;;;5114709;28;20925;-67
2022/11/16 13:08:29;;;;;;;6.00;2.07;;;;;;;;;;5114420;28;20442;-66
2022/11/16 13:10:58;;;;;;;4.23;2.10;;;;;;;;;;5114540;28;20473;-67
2022/11/16 13:13:28;;;;;;;7.00;1.80;;;;;;;;;;5114095;28;20964;-66
2022/11/16 13:15:57;;;;;;;4.00;2.20;;;;;;;;;;5114233;28;20437;-67
2022/11/16 13:18:25;;;;;;;3.97;2.27;;;;;;;;;;5114385;28;20444;-67
2022/11/16 13:20:56;;;;;;;2.63;1.77;;;;;;;;;;5114469;28;20456;-66
2022/11/16 13:23:29;;;;;;;5.57;1.97;;;;;;;;;;5114364;28;20433;-67
2022/11/16 13:26:00;;;;;;;5.70;2.63;;;;;;;;;;5114309;28;20445;-66
2022/11/16 13:28:31;;;;;;;2.40;1.90;;;;;;;;;;5114317;28;20428;-67
2022/11/16 13:31:01;;;;;;;6.53;2.00;;;;;;;;;;5113817;28;20994;-66
2022/11/16 13:33:32;;;;;;;2.07;1.87;;;;;;;;;;5114797;28;20450;-67
2022/11/16 13:35:59;;;;;;;3.17;1.97;;;;;;;;;;5114730;28;20422;-67
2022/11/16 13:38:45;;;;;;;4.20;1.73;;;;;;;;;;5114086;28;20535;-67
2022/11/16 13:41:30;;;;;;;3.23;1.70;;;;;;;;;;5114668;28;20825;-67
2022/11/16 13:43:58;;;;;;;2.60;2.17;;;;;;;;;;5114415;28;20439;-67
2022/11/16 13:46:36;;;;;;;4.73;1.80;;;;;;;;;;5114211;28;20449;-67
2022/11/16 13:49:04;;;;;;;3.03;1.77;;;;;;;;;;5114002;28;20907;-67
2022/11/16 13:51:31;;;;;;;2.40;2.00;;;;;;;;;;5113572;28;20481;-66
2022/11/16 13:53:58;;;;;;;9.80;1.90;;;;;;;;;;5113791;28;20483;-67
2022/11/16 13:56:26;;;;;;;8.07;2.53;;;;;;;;;;5113797;28;20441;-67
2022/11/16 13:58:54;;;;;;;5.03;1.93;;;;;;;;;;5115066;28;20527;-67
2022/11/16 14:01:22;;;;;;;7.63;2.23;;;;;;;;;;5116718;28;20451;-67
2022/11/16 14:03:51;;;;;;;7.43;2.30;;;;;;;;;;5113892;28;20442;-67
2022/11/16 14:06:37;;;;;;;6.80;2.27;;;;;;;;;;5113666;28;20439;-66
2022/11/16 14:09:04;;;;;;;3.00;1.70;;;;;;;;;;5113457;28;21006;-67
2022/11/16 14:11:32;;;;;;;4.83;2.27;;;;;;;;;;5114067;28;20847;-66
2022/11/16 14:14:04;;;;;;;4.30;1.90;;;;;;;;;;5113375;28;20445;-66
2022/11/16 14:16:33;;;;;;;6.23;1.73;;;;;;;;;;5113548;28;20435;-67
2022/11/16 14:19:01;;;;;;;4.60;2.00;;;;;;;;;;5113636;28;20523;-66
2022/11/16 14:21:36;;;;;;;4.83;2.10;;;;;;;;;;5113894;28;20937;-66
2022/11/16 14:24:08;;;;;;;8.03;2.80;;;;;;;;;;5114085;28;20432;-66
2022/11/16 14:26:43;;;;;;;4.00;1.90;;;;;;;;;;5113916;28;20515;-66
2022/11/16 14:29:28;;;;;;;3.60;2.20;;;;;;;;;;5113692;28;20427;-67
2022/11/16 14:31:56;;;;;;;5.13;2.17;;;;;;;;;;5113213;28;20461;-69
2022/11/16 14:34:25;;;;;;;2.80;2.07;;;;;;;;;;5112939;28;20439;-68
2022/11/16 14:36:52;;;;;;;13.93;3.47;;;;;;;;;;5113100;28;20436;-65
2022/11/16 14:39:25;;;;;;;5.57;2.00;;;;;;;;;;5112487;28;20452;-65
2022/11/16 14:41:53;;;;;;;6.83;2.23;;;;;;;;;;5113110;28;20490;-69
2022/11/16 14:44:21;;;;;;;5.73;2.30;;;;;;;;;;5112502;28;20443;-70
2022/11/16 14:46:50;;;;;;;4.60;2.33;;;;;;;;;;5112994;28;20530;-65
2022/11/16 14:49:19;;;;;;;4.43;2.33;;;;;;;;;;5112477;28;20443;-66
2022/11/16 14:51:48;;;;;;;7.13;2.30;;;;;;;;;;5112551;28;20545;-65
2022/11/16 14:54:16;;;;;;;8.10;2.20;;;;;;;;;;5112969;28;20448;-66
2022/11/16 14:56:56;;;;;;;3.10;2.00;;;;;;;;;;5113078;28;20437;-66
2022/11/16 14:59:24;;;;;;;9.80;2.33;;;;;;;;;;5112922;28;20435;-66
2022/11/16 15:01:52;;;;;;;8.00;3.00;;;;;;;;;;5113129;28;20462;-65
2022/11/16 15:04:21;;;;;;;3.13;2.40;;;;;;;;;;5113234;28;20443;-66
2022/11/16 15:06:49;;;;;;;8.90;3.60;;;;;;;;;;5116449;28;20531;-65
2022/11/16 15:09:20;;;;;;;6.00;3.13;;;;;;;;;;5116769;28;20448;-65
2022/11/16 15:14:35;;;;;;;15.07;5.97;;;;;;;;;;5116467;28;20891;-66
2022/11/16 15:17:04;;;;;;;14.07;6.60;;;;;;;;;;5116383;28;20775;-65
2022/11/16 15:19:31;;;;;;;16.70;8.27;;;;;;;;;;5116368;28;20794;-66
2022/11/16 15:21:59;;;;;;;9.60;5.67;;;;;;;;;;5116183;28;20490;-65
2022/11/16 15:24:28;;;;;;;10.20;5.27;;;;;;;;;;5115999;28;21009;-65
2022/11/16 15:26:56;;;;;;;6.73;3.90;;;;;;;;;;5115919;28;20447;-65